Time;durP1;ratioP1;P1;durP2;ratioP2;P2;SDS_P1;SDS_P2;PMS_P1;PMS_P2;Temp;Humidity;BMP_temperature;BMP_pressure;BME280_temperature;BME280_humidity;BME280_pressure;Samples;Min_cycle;Max_cycle;Signal;HPM_P1;HPM_P2
2023/12/29 00:02:10;;;;;;;0.60;0.60;;;;;;;11.93;97.26;100217.53;4980285;28;20026;-88
2023/12/29 00:04:36;;;;;;;0.65;0.65;;;;;;;11.58;97.29;100156.59;4967076;28;20090;-88
2023/12/29 00:07:02;;;;;;;0.60;0.60;;;;;;;11.93;97.59;100223.75;4964291;28;20034;-90
2023/12/29 00:09:28;;;;;;;0.60;0.60;;;;;;;11.44;97.98;100137.53;4963923;28;20641;-88
2023/12/29 00:11:54;;;;;;;0.60;0.60;;;;;;;11.42;97.08;100134.03;4997600;28;20053;-89
2023/12/29 00:14:20;;;;;;;0.70;0.70;;;;;;;11.89;97.04;100221.25;4963067;28;20026;-90
2023/12/29 00:16:45;;;;;;;0.60;0.60;;;;;;;11.73;97.28;100220.00;4962197;28;20118;-89
2023/12/29 00:19:12;;;;;;;0.70;0.70;;;;;;;11.80;97.88;100229.53;4977262;28;20510;-88
2023/12/29 00:21:39;;;;;;;0.60;0.60;;;;;;;11.63;97.99;100199.94;4961746;28;20038;-90
2023/12/29 00:24:05;;;;;;;0.70;0.70;;;;;;;11.54;97.81;100185.13;4997115;28;20023;-91
2023/12/29 00:26:31;;;;;;;0.60;0.60;;;;;;;11.85;97.84;100236.47;5008801;28;20056;-89
2023/12/29 00:28:57;;;;;;;0.60;0.60;;;;;;;11.68;97.53;100221.97;4974403;28;20118;-90
2023/12/29 00:31:23;;;;;;;0.70;0.70;;;;;;;11.49;98.42;100210.16;4967889;28;20014;-91
2023/12/29 00:33:51;;;;;;;0.70;0.70;;;;;;;11.66;98.31;100227.34;4992371;28;20033;-89
2023/12/29 00:36:18;;;;;;;0.70;0.70;;;;;;;11.33;98.33;100180.50;4981899;28;20596;-90
2023/12/29 00:38:44;;;;;;;0.60;0.60;;;;;;;11.50;99.01;100217.22;4998742;28;20022;-89
2023/12/29 00:41:09;;;;;;;0.60;0.60;;;;;;;11.25;99.63;100179.00;4966233;28;20511;-90
2023/12/29 00:43:35;;;;;;;0.70;0.70;;;;;;;11.34;99.62;100208.00;4978410;28;20031;-89
2023/12/29 00:46:04;;;;;;;0.70;0.70;;;;;;;11.21;100.00;100188.00;4976377;28;20034;-88
2023/12/29 00:48:31;;;;;;;0.70;0.70;;;;;;;10.86;100.00;100141.22;5000812;28;20031;-88
2023/12/29 00:50:56;;;;;;;0.70;0.70;;;;;;;11.30;100.00;100195.72;4986173;28;20518;-89
2023/12/29 00:53:22;;;;;;;0.70;0.70;;;;;;;11.15;100.00;100177.56;4981576;28;20030;-89
2023/12/29 00:55:47;;;;;;;0.70;0.70;;;;;;;11.05;100.00;100176.13;4977400;28;20070;-90
2023/12/29 00:58:13;;;;;;;0.60;0.60;;;;;;;10.97;100.00;100162.19;4962681;28;20461;-87
2023/12/29 01:00:38;;;;;;;0.80;0.80;;;;;;;11.10;100.00;100180.38;4979786;28;20031;-90
2023/12/29 01:03:04;;;;;;;0.70;0.70;;;;;;;11.08;100.00;100187.53;4962052;28;20027;-90
2023/12/29 01:05:29;;;;;;;0.70;0.70;;;;;;;11.17;100.00;100183.72;4964491;28;20769;-90
2023/12/29 01:07:55;;;;;;;0.77;0.77;;;;;;;10.89;100.00;100138.47;4982271;28;20022;-92
2023/12/29 01:10:21;;;;;;;0.70;0.70;;;;;;;10.95;100.00;100148.94;4974487;28;20086;-90
2023/12/29 01:12:46;;;;;;;0.80;0.80;;;;;;;11.28;100.00;100192.22;4965149;28;20030;-88
2023/12/29 01:15:12;;;;;;;0.70;0.70;;;;;;;11.18;100.00;100174.81;4998070;28;20029;-89
2023/12/29 01:17:37;;;;;;;0.70;0.70;;;;;;;11.29;100.00;100180.63;4981267;28;20774;-90
2023/12/29 01:20:04;;;;;;;0.65;0.65;;;;;;;11.45;99.90;100200.53;4977077;28;20457;-90
2023/12/29 01:22:30;;;;;;;0.70;0.70;;;;;;;11.34;100.00;100184.91;4980404;28;20551;-91
2023/12/29 01:24:55;;;;;;;0.70;0.70;;;;;;;11.09;100.00;100145.81;4986268;28;20045;-90
2023/12/29 01:27:21;;;;;;;0.70;0.70;;;;;;;11.23;99.73;100154.22;4980182;28;20420;-91
2023/12/29 01:29:46;;;;;;;0.70;0.70;;;;;;;11.40;99.91;100190.00;4982358;28;20032;-90
2023/12/29 01:32:12;;;;;;;0.70;0.70;;;;;;;11.27;99.69;100156.72;4967550;28;20045;-91
2023/12/29 01:34:38;;;;;;;0.70;0.70;;;;;;;11.09;99.46;100135.16;4978431;28;20054;-89
2023/12/29 01:37:03;;;;;;;0.60;0.60;;;;;;;11.37;99.03;100184.78;4945518;29;20146;-91
2023/12/29 01:39:30;;;;;;;0.70;0.70;;;;;;;11.45;99.17;100201.38;4941627;28;20035;-90
2023/12/29 01:41:58;;;;;;;0.70;0.70;;;;;;;11.52;99.92;100202.06;4941595;29;20031;-90
2023/12/29 01:44:24;;;;;;;0.63;0.63;;;;;;;11.55;99.09;100200.16;4943356;28;20178;-90
2023/12/29 01:46:51;;;;;;;0.70;0.70;;;;;;;11.56;98.85;100209.03;4990157;28;20109;-90
2023/12/29 01:49:19;;;;;;;0.70;0.70;;;;;;;11.40;98.96;100187.34;4964132;28;20484;-89
2023/12/29 01:51:52;;;;;;;0.60;0.60;;;;;;;11.40;99.72;100184.69;4963022;28;20023;-90
2023/12/29 01:54:20;;;;;;;0.73;0.73;;;;;;;11.37;99.74;100173.25;4976963;28;20491;-89
2023/12/29 01:56:46;;;;;;;0.60;0.60;;;;;;;11.49;99.49;100192.38;4985919;28;20527;-90
2023/12/29 01:59:12;;;;;;;0.70;0.70;;;;;;;11.35;100.00;100153.81;4952885;28;20018;-92
2023/12/29 02:01:39;;;;;;;0.80;0.80;;;;;;;11.44;100.00;100182.78;4961855;28;20102;-91
2023/12/29 02:04:06;;;;;;;0.70;0.70;;;;;;;11.33;100.00;100167.19;4961534;28;20481;-91
2023/12/29 02:06:34;;;;;;;0.60;0.60;;;;;;;11.25;100.00;100171.03;4960814;28;20023;-90
2023/12/29 02:09:03;;;;;;;0.68;0.68;;;;;;;11.28;100.00;100168.25;4978191;28;20026;-91
2023/12/29 02:11:29;;;;;;;0.70;0.70;;;;;;;11.29;100.00;100162.00;4960557;28;20403;-91
2023/12/29 02:13:55;;;;;;;0.70;0.70;;;;;;;11.15;100.00;100156.28;4976974;28;20446;-92
2023/12/29 02:17:05;;;;;;;0.63;0.63;;;;;;;11.13;100.00;100151.00;4976749;28;20033;-90
2023/12/29 02:19:43;;;;;;;0.68;0.68;;;;;;;11.11;100.00;100165.25;4979722;28;20102;-91
2023/12/29 02:22:09;;;;;;;0.60;0.60;;;;;;;10.91;100.00;100135.75;4945051;28;20114;-91
2023/12/29 02:24:36;;;;;;;0.70;0.70;;;;;;;10.97;100.00;100156.88;4945939;29;20130;-90
2023/12/29 02:27:16;;;;;;;0.70;0.70;;;;;;;11.09;100.00;100167.09;4974569;28;20752;-90
2023/12/29 02:29:49;;;;;;;0.60;0.60;;;;;;;10.87;100.00;100123.47;4958937;28;20097;-91
2023/12/29 02:32:18;;;;;;;0.70;0.70;;;;;;;10.75;100.00;100103.47;4981387;28;20049;-89
2023/12/29 02:34:46;;;;;;;0.70;0.70;;;;;;;11.01;100.00;100150.50;4997525;28;20062;-90
2023/12/29 02:37:12;;;;;;;0.60;0.60;;;;;;;10.78;100.00;100134.41;4981410;28;20104;-91
2023/12/29 02:39:38;;;;;;;0.80;0.80;;;;;;;10.72;100.00;100129.28;4978624;28;20488;-91
2023/12/29 02:42:04;;;;;;;0.70;0.70;;;;;;;10.59;100.00;100091.56;4977947;28;20029;-90
2023/12/29 02:44:30;;;;;;;0.80;0.80;;;;;;;10.60;100.00;100094.19;4977570;28;20026;-89
2023/12/29 02:46:55;;;;;;;0.70;0.70;;;;;;;10.56;100.00;100089.84;4977834;28;20037;-91
2023/12/29 02:49:21;;;;;;;0.70;0.70;;;;;;;10.76;100.00;100130.94;4977831;28;20451;-89
2023/12/29 02:51:47;;;;;;;0.70;0.70;;;;;;;10.78;100.00;100135.28;4977887;28;20094;-91
2023/12/29 02:54:13;;;;;;;0.80;0.80;;;;;;;10.81;100.00;100134.34;4973234;28;20112;-90
2023/12/29 02:56:38;;;;;;;0.70;0.70;;;;;;;10.77;100.00;100136.22;4977408;28;20487;-90
2023/12/29 02:59:04;;;;;;;0.77;0.77;;;;;;;10.78;100.00;100129.06;4976972;28;20033;-90
2023/12/29 03:01:29;;;;;;;0.70;0.70;;;;;;;10.86;100.00;100148.31;4976720;28;20030;-90
2023/12/29 03:03:55;;;;;;;0.70;0.70;;;;;;;10.82;100.00;100122.75;4958715;28;20085;-90
2023/12/29 03:06:20;;;;;;;0.60;0.60;;;;;;;10.87;100.00;100144.78;4966536;28;20077;-90
2023/12/29 03:08:46;;;;;;;0.63;0.63;;;;;;;10.86;100.00;100137.69;4974770;28;20129;-90
2023/12/29 03:11:11;;;;;;;0.80;0.80;;;;;;;10.87;100.00;100131.47;4977146;28;20030;-90
2023/12/29 03:13:37;;;;;;;0.70;0.70;;;;;;;10.87;100.00;100123.47;4977230;28;20688;-91
2023/12/29 03:16:02;;;;;;;0.70;0.70;;;;;;;10.81;100.00;100123.69;4977388;28;20026;-90
2023/12/29 03:18:28;;;;;;;0.70;0.70;;;;;;;10.81;100.00;100123.69;4962346;28;20023;-91
2023/12/29 03:20:53;;;;;;;0.70;0.70;;;;;;;10.76;100.00;100110.50;4958051;28;20038;-90
2023/12/29 03:23:18;;;;;;;0.70;0.70;;;;;;;10.74;100.00;100122.13;4967083;28;20038;-89
2023/12/29 03:25:44;;;;;;;0.70;0.70;;;;;;;10.73;100.00;100121.25;4976745;28;20046;-90
2023/12/29 03:28:10;;;;;;;0.80;0.80;;;;;;;10.82;100.00;100123.63;4994022;28;20069;-91
2023/12/29 03:30:35;;;;;;;0.70;0.70;;;;;;;10.84;100.00;100121.78;4994320;28;20038;-91
2023/12/29 03:33:01;;;;;;;0.60;0.60;;;;;;;10.91;100.00;100133.09;4977090;28;20033;-92
2023/12/29 03:35:26;;;;;;;0.60;0.60;;;;;;;10.73;100.00;100099.97;4976861;28;20054;-91
2023/12/29 03:37:51;;;;;;;0.70;0.70;;;;;;;10.91;100.00;100125.09;4976267;28;20042;-91
2023/12/29 03:40:17;;;;;;;0.60;0.60;;;;;;;10.95;100.00;100137.41;4976386;28;20776;-90
2023/12/29 03:42:42;;;;;;;0.70;0.70;;;;;;;10.91;100.00;100125.09;4994464;28;20030;-90
2023/12/29 03:45:08;;;;;;;0.60;0.60;;;;;;;10.81;100.00;100115.69;4976535;28;20041;-90
2023/12/29 03:47:35;;;;;;;0.70;0.70;;;;;;;10.81;100.00;100091.75;4979094;28;20077;-91
2023/12/29 03:50:00;;;;;;;0.60;0.60;;;;;;;10.81;100.00;100105.91;5013603;28;20030;-91
2023/12/29 03:52:25;;;;;;;0.70;0.70;;;;;;;10.96;100.00;100099.22;4995774;28;20032;-92
2023/12/29 03:54:51;;;;;;;0.70;0.70;;;;;;;10.62;100.00;100055.06;4976181;28;20386;-91
2023/12/29 03:57:16;;;;;;;0.70;0.70;;;;;;;10.96;100.00;100117.84;4976383;28;20037;-90
2023/12/29 03:59:42;;;;;;;0.70;0.70;;;;;;;10.91;100.00;100109.13;4976175;28;20033;-89
2023/12/29 04:02:07;;;;;;;0.80;0.80;;;;;;;10.82;100.00;100089.03;4976666;28;20034;-90
2023/12/29 04:04:37;;;;;;;0.70;0.70;;;;;;;10.84;100.00;100094.31;4975915;28;20373;-89
2023/12/29 04:07:02;;;;;;;0.70;0.70;;;;;;;10.90;100.00;100097.66;4975972;28;20483;-90
2023/12/29 04:09:28;;;;;;;0.70;0.70;;;;;;;10.70;100.00;100069.94;4975685;28;20030;-89
2023/12/29 04:11:53;;;;;;;0.60;0.60;;;;;;;10.89;100.00;100089.72;4961686;28;20746;-90
2023/12/29 04:14:19;;;;;;;0.73;0.73;;;;;;;10.87;100.00;100063.16;4973891;28;20033;-89
2023/12/29 04:16:44;;;;;;;0.70;0.70;;;;;;;11.03;100.00;100083.00;4977910;28;20041;-91
2023/12/29 04:19:09;;;;;;;0.70;0.70;;;;;;;10.93;100.00;100076.25;4975790;28;20026;-92
2023/12/29 04:21:35;;;;;;;0.70;0.70;;;;;;;11.09;100.00;100112.06;4958764;28;20041;-92
2023/12/29 04:24:00;;;;;;;0.70;0.70;;;;;;;10.91;100.00;100082.53;4956881;28;20089;-90
2023/12/29 04:26:26;;;;;;;0.70;0.70;;;;;;;11.16;100.00;100126.06;4944831;29;20069;-90
2023/12/29 04:28:51;;;;;;;0.65;0.65;;;;;;;11.00;100.00;100082.25;4937900;29;20106;-90
2023/12/29 04:31:16;;;;;;;0.70;0.70;;;;;;;11.06;100.00;100098.00;4938508;28;20033;-89
2023/12/29 04:33:42;;;;;;;0.70;0.70;;;;;;;11.06;100.00;100087.34;4956396;28;20018;-89
2023/12/29 04:36:07;;;;;;;0.70;0.70;;;;;;;11.09;100.00;100092.56;4974040;28;20034;-90
2023/12/29 04:38:33;;;;;;;0.70;0.70;;;;;;;11.09;100.00;100081.91;4956024;28;20065;-89
2023/12/29 04:40:58;;;;;;;0.70;0.70;;;;;;;11.04;100.00;100074.09;4973567;28;20030;-91
2023/12/29 04:43:24;;;;;;;0.70;0.70;;;;;;;11.23;100.00;100107.19;4956427;28;20023;-89
2023/12/29 04:45:49;;;;;;;0.70;0.70;;;;;;;11.25;100.00;100120.44;4956422;28;20025;-89
2023/12/29 04:48:15;;;;;;;0.60;0.60;;;;;;;11.04;100.00;100075.88;4956220;28;20027;-90
2023/12/29 04:50:40;;;;;;;0.70;0.70;;;;;;;11.14;100.00;100094.16;4954531;28;20039;-90
2023/12/29 04:53:06;;;;;;;0.70;0.70;;;;;;;11.36;100.00;100131.59;4956567;28;20022;-90
2023/12/29 04:55:31;;;;;;;0.70;0.70;;;;;;;11.29;100.00;100125.59;4946577;29;20046;-90
2023/12/29 04:57:56;;;;;;;0.80;0.80;;;;;;;11.15;100.00;100098.56;4937004;29;20031;-88
2023/12/29 05:00:22;;;;;;;0.68;0.68;;;;;;;11.26;100.00;100133.69;4956102;28;20354;-90
2023/12/29 05:02:47;;;;;;;0.70;0.70;;;;;;;11.37;100.00;100144.84;4956795;28;20508;-90
2023/12/29 05:05:13;;;;;;;0.60;0.60;;;;;;;11.25;100.00;100121.28;4956320;28;20038;-89
2023/12/29 05:07:38;;;;;;;0.60;0.60;;;;;;;11.24;100.00;100129.31;4944776;29;20094;-88
2023/12/29 05:10:04;;;;;;;0.70;0.70;;;;;;;11.27;100.00;100114.13;4937407;29;20087;-90
2023/12/29 05:12:30;;;;;;;0.70;0.70;;;;;;;11.26;100.00;100122.16;4936583;29;20031;-90
2023/12/29 05:14:55;;;;;;;0.70;0.70;;;;;;;11.18;100.00;100103.81;4937470;29;20027;-89
2023/12/29 05:17:21;;;;;;;0.70;0.70;;;;;;;11.21;100.00;100102.81;4937385;29;20031;-90
2023/12/29 05:19:46;;;;;;;0.70;0.70;;;;;;;10.91;100.00;100055.91;4949911;28;20078;-89
2023/12/29 05:22:15;;;;;;;0.70;0.70;;;;;;;11.03;100.00;100074.16;4959280;28;20038;-90
2023/12/29 05:24:41;;;;;;;0.70;0.70;;;;;;;11.03;100.00;100077.69;4959808;28;20070;-89
2023/12/29 05:27:07;;;;;;;0.70;0.70;;;;;;;11.03;100.00;100092.78;4977299;28;20105;-89
2023/12/29 05:29:32;;;;;;;0.60;0.60;;;;;;;11.08;100.00;100099.69;4979045;28;20073;-89
2023/12/29 05:31:57;;;;;;;0.70;0.70;;;;;;;11.11;100.00;100104.91;4971260;28;20031;-89
2023/12/29 05:34:23;;;;;;;0.60;0.60;;;;;;;11.03;100.00;100098.97;4959447;28;20030;-90
2023/12/29 05:36:48;;;;;;;0.60;0.60;;;;;;;11.10;100.00;100111.19;4978470;28;20033;-88
2023/12/29 05:39:14;;;;;;;0.70;0.70;;;;;;;11.03;100.00;100083.00;4978649;28;20392;-88
2023/12/29 05:41:39;;;;;;;0.70;0.70;;;;;;;11.14;100.00;100095.94;4978679;28;20049;-89
2023/12/29 05:44:05;;;;;;;0.70;0.70;;;;;;;11.06;100.00;100074.03;4985473;28;20057;-88
2023/12/29 05:46:30;;;;;;;0.60;0.60;;;;;;;11.04;100.00;100073.22;4996909;28;20336;-89
2023/12/29 05:48:56;;;;;;;0.68;0.68;;;;;;;11.21;100.00;100108.13;4996054;28;20432;-89
2023/12/29 05:51:21;;;;;;;0.60;0.60;;;;;;;11.14;100.00;100090.63;4995535;28;20137;-89
2023/12/29 05:53:47;;;;;;;0.70;0.70;;;;;;;11.24;100.00;100092.94;4993398;28;20030;-89
2023/12/29 05:56:13;;;;;;;0.60;0.60;;;;;;;10.89;100.00;100034.69;4958509;28;20695;-90
2023/12/29 05:58:42;;;;;;;0.70;0.70;;;;;;;11.28;100.00;100099.03;4958799;28;20030;-89
2023/12/29 06:01:08;;;;;;;0.70;0.70;;;;;;;10.94;100.00;100032.72;4966641;28;20046;-89
2023/12/29 06:03:34;;;;;;;0.60;0.60;;;;;;;11.42;100.00;100112.72;4978474;28;20030;-90
2023/12/29 06:05:59;;;;;;;0.80;0.80;;;;;;;11.10;100.00;100070.38;4969956;28;20399;-89
2023/12/29 06:08:25;;;;;;;0.65;0.65;;;;;;;11.09;100.00;100060.63;4978249;28;20022;-90
2023/12/29 06:10:50;;;;;;;0.70;0.70;;;;;;;11.25;100.00;100089.34;4972205;28;20062;-90
2023/12/29 06:13:16;;;;;;;0.60;0.60;;;;;;;11.26;100.00;100090.22;4958597;28;20027;-89
2023/12/29 06:15:41;;;;;;;0.70;0.70;;;;;;;11.15;100.00;100081.72;4958771;28;20027;-89
2023/12/29 06:18:07;;;;;;;0.60;0.60;;;;;;;11.29;100.00;100090.09;4958780;28;20041;-90
2023/12/29 06:20:33;;;;;;;0.70;0.70;;;;;;;11.31;100.00;100104.25;4967270;28;20048;-89
2023/12/29 06:22:59;;;;;;;0.70;0.70;;;;;;;11.19;100.00;100091.34;4985710;28;20034;-89
2023/12/29 06:25:24;;;;;;;0.70;0.70;;;;;;;11.07;100.00;100068.66;4959894;28;20051;-89
2023/12/29 06:27:50;;;;;;;0.60;0.60;;;;;;;11.09;100.00;100082.78;4978098;28;20046;-92
2023/12/29 06:30:15;;;;;;;0.70;0.70;;;;;;;11.29;100.00;100116.72;4995170;28;20074;-90
2023/12/29 06:32:41;;;;;;;0.70;0.70;;;;;;;11.11;100.00;100090.72;4992369;28;20022;-90
2023/12/29 06:35:09;;;;;;;0.70;0.70;;;;;;;11.15;100.00;100095.88;4987982;28;20477;-91
2023/12/29 06:37:36;;;;;;;0.70;0.70;;;;;;;11.22;100.00;100109.91;4977307;28;20027;-90
2023/12/29 06:40:02;;;;;;;0.70;0.70;;;;;;;11.02;100.00;100075.09;4993981;28;20026;-89
2023/12/29 06:42:27;;;;;;;0.70;0.70;;;;;;;10.91;100.00;100070.09;4977478;28;20031;-89
2023/12/29 06:44:53;;;;;;;0.70;0.70;;;;;;;11.04;100.00;100087.41;4977226;28;20117;-89
2023/12/29 06:47:18;;;;;;;0.70;0.70;;;;;;;10.98;100.00;100095.59;4976991;28;20034;-89
2023/12/29 06:49:43;;;;;;;0.70;0.70;;;;;;;10.91;100.00;100075.41;4994877;28;20037;-90
2023/12/29 06:52:09;;;;;;;0.70;0.70;;;;;;;11.00;100.00;100092.88;4976866;28;20026;-90
2023/12/29 06:54:34;;;;;;;0.70;0.70;;;;;;;10.92;100.00;100063.00;4993975;28;20033;-90
2023/12/29 06:57:00;;;;;;;0.80;0.80;;;;;;;11.05;100.00;100090.94;4957986;28;20018;-89
2023/12/29 06:59:25;;;;;;;0.63;0.63;;;;;;;10.91;100.00;100066.56;4958353;28;20034;-90
2023/12/29 07:01:51;;;;;;;0.70;0.70;;;;;;;10.95;100.00;100060.22;4975483;28;20037;-90
2023/12/29 07:04:16;;;;;;;0.60;0.60;;;;;;;10.93;100.00;100056.75;4962376;28;20019;-89
2023/12/29 07:06:42;;;;;;;0.70;0.70;;;;;;;11.08;100.00;100078.41;4970524;28;20030;-88
2023/12/29 07:09:08;;;;;;;0.70;0.70;;;;;;;11.03;100.00;100072.38;4977793;28;20026;-89
2023/12/29 07:11:34;;;;;;;0.65;0.65;;;;;;;11.18;100.00;100094.94;4977502;28;20073;-89
2023/12/29 07:13:59;;;;;;;0.60;0.60;;;;;;;11.18;100.00;100089.59;4977390;28;20026;-90
2023/12/29 07:16:25;;;;;;;0.70;0.70;;;;;;;11.06;100.00;100074.03;4966405;28;20023;-89
2023/12/29 07:18:50;;;;;;;0.60;0.60;;;;;;;11.07;100.00;100073.13;4958357;28;20117;-91
2023/12/29 07:21:16;;;;;;;0.60;0.60;;;;;;;11.09;100.00;100090.78;4958012;28;20027;-89
2023/12/29 07:23:42;;;;;;;0.60;0.60;;;;;;;11.22;100.00;100099.25;4959197;28;20041;-90
2023/12/29 07:26:07;;;;;;;0.70;0.70;;;;;;;11.18;100.00;100086.94;4991171;28;20069;-89
2023/12/29 07:28:33;;;;;;;0.63;0.63;;;;;;;11.12;100.00;100081.84;4978827;28;20026;-90
2023/12/29 07:30:59;;;;;;;0.60;0.60;;;;;;;11.17;100.00;100091.38;4969377;28;20030;-89
2023/12/29 07:33:25;;;;;;;0.70;0.70;;;;;;;11.20;100.00;100091.28;4956465;28;20045;-90
2023/12/29 07:35:51;;;;;;;0.70;0.70;;;;;;;11.37;100.00;100117.34;4976969;28;20484;-90
2023/12/29 07:38:16;;;;;;;0.70;0.70;;;;;;;11.26;100.00;100084.88;4994883;28;20049;-90
2023/12/29 07:40:42;;;;;;;0.60;0.60;;;;;;;11.38;100.00;100113.78;4977141;28;20050;-89
2023/12/29 07:43:08;;;;;;;0.70;0.70;;;;;;;11.28;100.00;100083.94;4977546;28;20058;-89
2023/12/29 07:45:33;;;;;;;0.70;0.70;;;;;;;11.41;100.00;100097.69;4993214;28;20026;-92
2023/12/29 07:47:59;;;;;;;0.60;0.60;;;;;;;11.47;100.00;100102.78;4977068;28;20045;-90
2023/12/29 07:50:24;;;;;;;0.73;0.73;;;;;;;11.41;100.00;100095.00;4978066;28;20053;-91
2023/12/29 07:52:50;;;;;;;0.60;0.60;;;;;;;11.44;100.00;100087.78;4977845;28;20030;-90
2023/12/29 07:55:18;;;;;;;0.60;0.60;;;;;;;11.49;100.00;100100.94;4966463;28;20055;-89
2023/12/29 07:57:44;;;;;;;0.60;0.60;;;;;;;11.40;100.00;100082.63;4957475;28;20037;-90
2023/12/29 08:00:10;;;;;;;0.60;0.60;;;;;;;11.52;100.00;100108.81;4961454;28;20034;-89
2023/12/29 08:02:35;;;;;;;0.60;0.60;;;;;;;11.47;100.00;100100.13;4958146;28;20548;-89
2023/12/29 08:05:02;;;;;;;0.70;0.70;;;;;;;11.48;100.00;100100.06;4957527;28;20022;-90
2023/12/29 08:07:27;;;;;;;0.70;0.70;;;;;;;11.72;100.00;100125.00;4976687;28;20041;-88
2023/12/29 08:09:53;;;;;;;0.70;0.70;;;;;;;11.63;100.00;100106.69;4977632;28;20026;-90
2023/12/29 08:12:18;;;;;;;0.60;0.60;;;;;;;11.49;100.00;100092.94;4995519;28;20045;-90
2023/12/29 08:14:43;;;;;;;0.70;0.70;;;;;;;11.84;100.00;100137.91;4973423;28;20027;-89
2023/12/29 08:17:09;;;;;;;0.60;0.60;;;;;;;11.67;100.00;100129.63;4958492;28;20066;-89
2023/12/29 08:19:35;;;;;;;0.70;0.70;;;;;;;11.44;100.00;100076.25;4974284;28;20026;-89
2023/12/29 08:22:00;;;;;;;0.60;0.60;;;;;;;11.75;100.00;100131.09;4973607;28;20074;-89
2023/12/29 08:24:26;;;;;;;0.70;0.70;;;;;;;11.80;100.00;100136.28;4956746;28;20579;-89
2023/12/29 08:26:51;;;;;;;0.70;0.70;;;;;;;11.43;100.00;100087.84;4968012;28;20065;-88
2023/12/29 08:29:18;;;;;;;0.70;0.70;;;;;;;11.67;100.00;100119.84;4956717;28;20046;-90
2023/12/29 08:31:44;;;;;;;0.70;0.70;;;;;;;11.85;100.00;100150.31;4953209;28;20027;-88
2023/12/29 08:34:09;;;;;;;0.60;0.60;;;;;;;11.82;100.00;100150.41;4937389;29;20074;-89
2023/12/29 08:36:35;;;;;;;0.60;0.60;;;;;;;11.87;100.00;100149.34;4956290;28;20041;-90
2023/12/29 08:39:01;;;;;;;0.70;0.70;;;;;;;11.82;100.00;100145.09;4956384;28;20027;-89
2023/12/29 08:41:26;;;;;;;0.60;0.60;;;;;;;11.64;100.00;100114.66;4973461;28;20645;-90
2023/12/29 08:43:52;;;;;;;0.70;0.70;;;;;;;11.84;100.00;100129.91;4956360;28;20027;-89
2023/12/29 08:46:18;;;;;;;0.60;0.60;;;;;;;11.88;100.00;100150.19;4963406;28;20689;-89
2023/12/29 08:48:45;;;;;;;0.60;0.60;;;;;;;11.97;100.00;100160.53;4951901;28;20042;-89
2023/12/29 08:51:10;;;;;;;0.65;0.65;;;;;;;11.98;100.00;100156.09;4957157;28;20554;-89
2023/12/29 08:53:36;;;;;;;0.60;0.60;;;;;;;11.97;100.00;100147.22;4956886;28;20115;-89
2023/12/29 08:56:02;;;;;;;0.60;0.60;;;;;;;11.94;100.00;100147.31;4953112;28;20469;-89
2023/12/29 08:58:29;;;;;;;0.60;0.60;;;;;;;11.97;100.00;100133.00;4958940;29;20058;-89
2023/12/29 09:00:54;;;;;;;0.60;0.60;;;;;;;11.98;100.00;100135.59;4960987;28;20030;-89
2023/12/29 09:03:20;;;;;;;0.60;0.60;;;;;;;12.06;100.00;100141.53;4942049;29;20731;-89
2023/12/29 09:05:45;;;;;;;0.60;0.60;;;;;;;12.05;100.00;100142.47;4946753;28;20062;-89
2023/12/29 09:08:11;;;;;;;0.60;0.60;;;;;;;12.09;100.00;100133.44;4960460;28;20027;-88
2023/12/29 09:10:36;;;;;;;0.70;0.70;;;;;;;12.05;100.00;100136.25;4950806;29;20031;-88
2023/12/29 09:13:01;;;;;;;0.60;0.60;;;;;;;12.13;100.00;100139.50;4941395;29;20038;-89
2023/12/29 09:15:27;;;;;;;0.60;0.60;;;;;;;12.18;100.00;100149.09;4958977;28;20023;-89
2023/12/29 09:17:52;;;;;;;0.60;0.60;;;;;;;12.24;100.00;100146.19;4941448;29;20020;-88
2023/12/29 09:20:18;;;;;;;0.60;0.60;;;;;;;12.69;100.00;100141.78;4941451;29;20031;-89
2023/12/29 09:22:43;;;;;;;0.50;0.50;;;;;;;13.59;100.00;100136.31;4968296;28;20077;-90
2023/12/29 09:25:09;;;;;;;0.60;0.60;;;;;;;14.15;94.20;100158.75;4964679;28;20038;-89
2023/12/29 09:27:34;;;;;;;0.60;0.60;;;;;;;14.06;94.17;100164.50;4997292;28;20053;-88
2023/12/29 09:30:00;;;;;;;0.52;0.52;;;;;;;14.92;88.75;100150.69;4972520;28;20041;-89
2023/12/29 09:32:25;;;;;;;0.50;0.50;;;;;;;15.68;82.38;100145.94;4959636;28;20472;-88
2023/12/29 09:34:51;;;;;;;0.50;0.50;;;;;;;16.22;80.77;100142.19;4959678;28;20026;-88
2023/12/29 09:37:17;;;;;;;0.50;0.50;;;;;;;17.16;74.78;100162.03;4976751;28;20029;-88
2023/12/29 09:39:43;;;;;;;0.50;0.50;;;;;;;17.48;70.37;100147.59;4978462;28;20042;-88
2023/12/29 09:42:19;;;;;;;0.50;0.50;;;;;;;17.60;69.41;100133.44;4977611;28;20026;-88
2023/12/29 09:44:47;;;;;;;0.40;0.40;;;;;;;18.53;68.07;100160.94;4989845;28;20085;-88
2023/12/29 09:47:14;;;;;;;0.40;0.40;;;;;;;19.29;65.44;100155.09;4993182;28;20464;-87
2023/12/29 09:49:41;;;;;;;0.40;0.40;;;;;;;20.07;61.29;100162.31;4978233;28;20034;-89
2023/12/29 09:52:12;;;;;;;0.40;0.40;;;;;;;20.24;58.98;100146.72;4977670;28;20023;-88
2023/12/29 09:54:39;;;;;;;0.40;0.40;;;;;;;20.24;58.29;100141.34;4994088;28;20019;-87
2023/12/29 09:57:05;;;;;;;0.40;0.40;;;;;;;20.16;57.68;100159.03;4976834;28;20054;-88
2023/12/29 09:59:35;;;;;;;0.30;0.30;;;;;;;20.05;57.67;100138.13;4976470;28;20041;-88
2023/12/29 10:02:03;;;;;;;0.30;0.30;;;;;;;20.32;55.55;100128.16;4977356;28;20030;-88
2023/12/29 10:04:29;;;;;;;0.30;0.30;;;;;;;20.70;55.39;100156.00;4977666;28;20094;-90
2023/12/29 10:06:56;;;;;;;0.38;0.38;;;;;;;20.48;56.21;100123.38;4974500;28;20089;-88
2023/12/29 10:09:23;;;;;;;0.30;0.30;;;;;;;21.15;53.23;100126.63;4990982;28;20469;-88
2023/12/29 10:11:51;;;;;;;0.30;0.30;;;;;;;20.43;53.76;100106.63;4978761;28;20439;-91
2023/12/29 10:14:30;;;;;;;0.30;0.30;;;;;;;20.36;55.80;100150.41;4978014;28;20169;-88
2023/12/29 10:17:34;;;;;;;0.30;0.30;;;;;;;20.51;54.11;100152.88;4992208;28;20034;-89
2023/12/29 10:20:21;;;;;;;0.38;0.38;;;;;;;20.10;55.39;100144.06;4973411;28;20030;-89
2023/12/29 10:23:08;;;;;;;0.38;0.38;;;;;;;20.20;57.16;100133.53;4977632;28;20034;-89
2023/12/29 10:25:34;;;;;;;0.32;0.32;;;;;;;20.38;55.85;100143.03;4976459;28;20054;-89
2023/12/29 10:27:59;;;;;;;0.30;0.30;;;;;;;20.22;54.10;100127.06;4959892;28;20811;-89
2023/12/29 10:30:26;;;;;;;0.30;0.30;;;;;;;18.62;59.85;100126.19;4957514;28;20026;-91
2023/12/29 10:32:52;;;;;;;0.40;0.40;;;;;;;17.87;63.55;100136.31;4979322;28;20085;-88
2023/12/29 10:35:18;;;;;;;0.40;0.40;;;;;;;17.97;65.21;100127.56;4975712;28;20173;-88
2023/12/29 10:37:44;;;;;;;0.40;0.40;;;;;;;18.63;63.52;100121.69;4976506;28;20182;-88
2023/12/29 10:40:16;;;;;;;0.40;0.40;;;;;;;18.90;61.55;100114.50;4961372;28;20034;-90
2023/12/29 10:42:53;;;;;;;0.40;0.40;;;;;;;18.59;62.47;100109.38;4966912;28;20377;-89
2023/12/29 10:45:18;;;;;;;0.32;0.32;;;;;;;18.23;64.17;100097.25;5011598;28;20369;-89
2023/12/29 10:47:44;;;;;;;0.40;0.40;;;;;;;18.14;65.57;100113.97;4988016;28;20037;-90
2023/12/29 10:50:09;;;;;;;0.40;0.40;;;;;;;18.60;63.46;100103.88;4988717;28;20897;-88
2023/12/29 10:52:37;;;;;;;0.30;0.30;;;;;;;18.71;62.72;100097.81;4973761;28;20427;-89
2023/12/29 10:55:07;;;;;;;0.30;0.30;;;;;;;17.85;63.54;100063.75;4970934;28;20026;-88
2023/12/29 10:57:32;;;;;;;0.30;0.30;;;;;;;16.86;67.55;100080.47;4957023;28;20090;-88
2023/12/29 10:59:59;;;;;;;0.30;0.30;;;;;;;16.23;72.56;100092.06;4961164;28;20027;-90
2023/12/29 11:02:32;;;;;;;0.30;0.30;;;;;;;15.91;74.54;100084.88;4958736;28;20030;-90
2023/12/29 11:05:10;;;;;;;0.40;0.40;;;;;;;15.75;76.08;100077.63;4970179;28;20034;-88
2023/12/29 11:07:42;;;;;;;0.40;0.40;;;;;;;15.61;77.22;100084.69;4957633;28;20039;-89
2023/12/29 11:10:08;;;;;;;0.40;0.40;;;;;;;15.35;78.71;100087.78;4956103;28;20129;-88
2023/12/29 11:12:36;;;;;;;0.40;0.40;;;;;;;15.20;79.83;100076.03;4971371;28;20022;-89
2023/12/29 11:15:03;;;;;;;0.40;0.40;;;;;;;15.39;78.88;100076.88;4993480;28;20030;-88
2023/12/29 11:17:31;;;;;;;0.40;0.40;;;;;;;16.20;76.59;100076.13;4972415;28;20492;-88